createdAt,value
2023-06-15T05:22:58.898Z,22.62
2023-06-15T05:25:01.681Z,22.93
2023-06-15T05:27:04.626Z,23.24
2023-06-15T05:29:07.871Z,23.51
2023-06-15T05:31:10.893Z,23.76
2023-06-15T05:33:13.888Z,23.93
2023-06-15T05:35:17.034Z,24.02
2023-06-15T05:37:20.060Z,24.19
2023-06-15T05:39:25.663Z,24.41
2023-06-15T05:41:28.710Z,24.62
2023-06-15T05:43:31.651Z,24.78
2023-06-15T05:45:34.496Z,24.93
2023-06-15T05:47:37.538Z,25.05
2023-06-15T05:49:40.397Z,25.15
2023-06-15T05:51:43.212Z,25.25
2023-06-15T05:53:46.140Z,25.38
2023-06-15T05:55:50.405Z,25.49
2023-06-15T05:57:54.689Z,25.60
2023-06-15T05:59:57.624Z,25.70
2023-06-15T06:02:00.640Z,25.76
2023-06-15T06:04:03.447Z,25.80
2023-06-15T06:06:06.566Z,25.88
2023-06-15T06:08:09.420Z,25.92
2023-06-15T06:10:12.174Z,25.97
2023-06-15T06:12:16.521Z,25.99
2023-06-15T06:14:19.471Z,26.01
2023-06-15T06:16:22.354Z,26.02
2023-06-15T06:18:25.296Z,26.05
2023-06-15T06:20:28.164Z,26.10
2023-06-15T06:22:31.720Z,26.16
2023-06-15T06:24:34.578Z,26.18
2023-06-15T06:26:37.837Z,26.20
2023-06-15T06:28:42.329Z,26.21
2023-06-15T06:30:45.219Z,26.19
2023-06-15T06:32:48.410Z,26.17
2023-06-15T06:34:51.583Z,26.13
2023-06-15T06:36:54.824Z,26.12
2023-06-15T06:39:02.697Z,26.09
2023-06-15T06:41:06.210Z,26.06
2023-06-15T06:43:09.153Z,26.07
2023-06-15T06:45:13.440Z,26.10
2023-06-15T06:47:16.572Z,26.10
2023-06-15T06:49:19.456Z,26.09
2023-06-15T06:51:22.463Z,26.10
2023-06-15T06:53:26.679Z,26.12
2023-06-15T06:55:29.589Z,26.16
2023-06-15T06:57:32.566Z,26.18
2023-06-15T06:59:43.159Z,26.17
2023-06-15T07:01:48.514Z,26.15
2023-06-15T07:03:51.659Z,26.11
2023-06-15T07:05:54.656Z,26.07
2023-06-15T07:07:57.741Z,26.05
2023-06-15T07:10:00.646Z,26.03
2023-06-15T07:12:04.220Z,26.02
2023-06-15T07:14:07.258Z,25.98
2023-06-15T07:16:10.203Z,25.93
2023-06-15T07:18:15.619Z,25.89
2023-06-15T07:20:18.742Z,25.85
2023-06-15T07:22:22.793Z,25.81
2023-06-15T07:24:25.912Z,25.75
2023-06-15T07:26:28.841Z,25.71
2023-06-15T07:28:31.716Z,25.68
2023-06-15T07:30:35.133Z,25.66
2023-06-15T07:32:38.200Z,25.65
2023-06-15T07:34:44.914Z,25.63
2023-06-15T07:36:47.739Z,25.60
2023-06-15T07:38:50.634Z,25.58
2023-06-15T07:40:53.662Z,25.55
2023-06-15T07:42:56.738Z,25.53
2023-06-15T07:44:59.916Z,25.47
2023-06-15T07:47:02.581Z,25.42
2023-06-15T07:49:05.688Z,25.36
2023-06-15T07:51:17.961Z,25.33
2023-06-15T07:53:27.932Z,25.33
2023-06-15T07:55:31.828Z,25.29
2023-06-15T07:57:36.769Z,25.27
2023-06-15T07:59:39.606Z,25.25
2023-06-15T08:01:42.492Z,25.27
2023-06-15T08:03:45.528Z,25.27
2023-06-15T08:05:48.574Z,25.27
2023-06-15T08:07:52.797Z,25.27
2023-06-15T08:09:55.699Z,25.25
2023-06-15T08:11:58.616Z,25.23
2023-06-15T08:14:01.624Z,25.21
2023-06-15T08:16:04.868Z,25.16
2023-06-15T08:18:07.957Z,25.15
2023-06-15T08:20:12.181Z,25.16
2023-06-15T08:22:15.685Z,25.15
2023-06-15T08:24:20.140Z,25.18
2023-06-15T08:26:23.892Z,25.18
2023-06-15T08:28:26.891Z,25.20
2023-06-15T08:30:30.057Z,25.22
2023-06-15T08:32:33.210Z,25.20
2023-06-15T08:34:36.215Z,25.17
2023-06-15T08:36:39.060Z,25.12
2023-06-15T08:38:42.045Z,25.07
2023-06-15T08:40:47.712Z,25.09
2023-06-15T08:42:52.233Z,25.12
2023-06-15T08:44:56.203Z,25.13
2023-06-15T08:47:00.054Z,25.13
2023-06-15T08:49:04.551Z,25.13
2023-06-15T08:51:09.744Z,25.13
2023-06-15T08:53:15.159Z,25.15
2023-06-15T08:55:19.920Z,25.17
2023-06-15T08:57:24.219Z,25.18
2023-06-15T08:59:27.406Z,25.19
2023-06-15T09:01:33.726Z,25.19
2023-06-15T09:03:37.615Z,25.19
2023-06-15T09:05:40.662Z,25.18
2023-06-15T09:07:43.589Z,25.19
2023-06-15T09:10:14.347Z,25.20
2023-06-15T09:12:20.880Z,25.21
2023-06-15T09:14:26.239Z,25.16
2023-06-15T09:16:34.004Z,25.14
2023-06-15T09:18:47.176Z,25.19
2023-06-15T09:20:50.524Z,25.22
2023-06-15T09:22:54.576Z,25.24
2023-06-15T09:24:57.470Z,25.27
2023-06-15T09:27:00.332Z,25.29
2023-06-15T09:29:04.095Z,25.28
2023-06-15T09:31:08.490Z,25.31
2023-06-15T09:33:14.204Z,25.32
2023-06-15T09:35:17.774Z,25.33
2023-06-15T09:37:20.703Z,25.31
2023-06-15T09:39:25.049Z,25.33
2023-06-15T09:41:28.344Z,25.36
2023-06-15T09:43:34.923Z,25.42
2023-06-15T09:45:38.471Z,25.41
2023-06-15T09:47:43.032Z,25.44
2023-06-15T09:49:47.032Z,25.44
2023-06-15T09:51:51.970Z,25.47
2023-06-15T09:53:55.447Z,25.51
2023-06-15T09:56:00.711Z,25.56
2023-06-15T09:58:04.317Z,25.60
2023-06-15T10:00:09.343Z,25.63
2023-06-15T10:02:13.858Z,25.62
2023-06-15T10:04:20.649Z,25.59
2023-06-15T10:06:26.395Z,25.59
2023-06-15T10:08:33.062Z,25.58
2023-06-15T10:10:38.001Z,25.59
2023-06-15T10:12:44.338Z,25.61
2023-06-15T10:14:51.904Z,25.65
2023-06-15T10:17:01.361Z,25.64
2023-06-15T10:19:07.911Z,25.68
2023-06-15T10:21:16.045Z,25.70
2023-06-15T10:23:36.624Z,25.73
2023-06-15T10:25:45.182Z,25.75
2023-06-15T10:27:49.550Z,25.77
2023-06-15T10:30:02.607Z,25.78
2023-06-15T10:32:14.649Z,25.84
2023-06-15T10:34:25.925Z,25.88
2023-06-15T10:36:32.124Z,25.95
2023-06-15T10:38:43.237Z,26.00
2023-06-15T10:40:49.960Z,26.03
2023-06-15T10:42:53.916Z,26.03
2023-06-15T10:45:00.424Z,26.01
2023-06-15T10:47:10.574Z,26.03
2023-06-15T10:49:13.772Z,26.06
2023-06-15T10:51:16.986Z,26.10
2023-06-15T10:53:26.178Z,26.11
2023-06-15T10:55:29.915Z,26.13
2023-06-15T10:57:37.366Z,26.16
2023-06-15T10:59:43.464Z,26.18
2023-06-15T11:01:46.401Z,26.22
2023-06-15T11:03:49.408Z,26.22
2023-06-15T11:06:02.943Z,26.23
2023-06-15T11:08:18.831Z,26.20
2023-06-15T11:10:28.781Z,26.18
2023-06-15T11:12:35.064Z,26.16
2023-06-15T11:14:38.042Z,26.16
2023-06-15T11:16:41.222Z,26.18
2023-06-15T11:19:13.732Z,26.19
2023-06-15T11:21:26.675Z,26.21
2023-06-15T11:23:33.952Z,26.24
2023-06-15T11:25:38.414Z,26.26
2023-06-15T11:27:43.800Z,26.29
2023-06-15T11:29:47.225Z,26.31
2023-06-15T11:31:50.384Z,26.35
2023-06-15T11:33:53.348Z,26.39
2023-06-15T11:35:56.484Z,26.46
2023-06-15T11:38:00.124Z,26.50
2023-06-15T11:40:14.418Z,26.54
2023-06-15T11:42:18.830Z,26.59
2023-06-15T11:44:23.146Z,26.63
2023-06-15T11:46:28.583Z,26.66
2023-06-15T11:48:32.697Z,26.69
2023-06-15T11:50:36.101Z,26.71
2023-06-15T11:52:44.245Z,26.73
2023-06-15T11:54:53.335Z,26.75
2023-06-15T11:56:58.439Z,26.75
2023-06-15T11:59:02.917Z,26.74
2023-06-15T12:01:06.143Z,26.73
2023-06-15T12:03:13.600Z,26.72
2023-06-15T12:05:18.373Z,26.74
2023-06-15T12:07:32.616Z,26.75
2023-06-15T12:09:39.681Z,26.76
2023-06-15T12:11:42.726Z,26.77
2023-06-15T12:13:46.150Z,26.80
2023-06-15T12:15:53.489Z,26.82
2023-06-15T12:17:57.261Z,26.82
2023-06-15T12:20:06.816Z,26.83
2023-06-15T12:22:09.917Z,26.85
2023-06-15T12:24:16.697Z,26.87
2023-06-15T12:26:21.180Z,26.87
2023-06-15T12:28:25.030Z,26.85
2023-06-15T12:30:28.114Z,26.82
2023-06-15T12:32:33.116Z,26.80
2023-06-15T12:34:42.106Z,26.78
2023-06-15T12:36:45.255Z,26.75
2023-06-15T12:38:51.273Z,26.76
2023-06-15T12:40:54.971Z,26.74
2023-06-15T12:42:59.378Z,26.75
2023-06-15T12:45:02.468Z,26.76
2023-06-15T12:47:05.941Z,26.76
2023-06-15T12:49:11.790Z,26.79
2023-06-15T12:51:14.843Z,26.83
2023-06-15T12:53:18.138Z,26.85
2023-06-15T12:55:21.352Z,26.86
2023-06-15T12:57:24.435Z,26.88
2023-06-15T12:59:27.362Z,26.88
2023-06-15T13:01:30.673Z,26.88
2023-06-15T13:03:33.852Z,26.90
2023-06-15T13:05:39.101Z,26.87
2023-06-15T13:07:42.152Z,26.87
2023-06-15T13:09:45.279Z,26.88
2023-06-15T13:11:48.964Z,26.90
2023-06-15T13:13:52.150Z,26.93
2023-06-15T13:15:55.174Z,26.95
2023-06-15T13:17:58.588Z,26.98
2023-06-15T13:20:01.580Z,26.98
2023-06-15T13:22:06.304Z,27.01
2023-06-15T13:24:09.209Z,27.03
2023-06-15T13:26:12.211Z,27.04
2023-06-15T13:28:14.988Z,27.06
2023-06-15T13:30:18.564Z,27.04
2023-06-15T13:32:22.383Z,27.06
2023-06-15T13:34:25.507Z,27.07
2023-06-15T13:36:28.309Z,27.07
2023-06-15T13:38:32.620Z,27.08
2023-06-15T13:40:36.055Z,27.11
2023-06-15T13:42:40.228Z,27.13
2023-06-15T13:44:43.261Z,27.17
2023-06-15T13:46:46.410Z,27.22
2023-06-15T13:48:49.390Z,27.25
2023-06-15T13:50:52.370Z,27.26
2023-06-15T13:52:55.235Z,27.26
2023-06-15T13:54:59.539Z,27.26
2023-06-15T13:57:02.732Z,27.22
2023-06-15T13:59:05.748Z,27.22
2023-06-15T14:01:08.709Z,27.20
2023-06-15T14:03:11.783Z,27.21
2023-06-15T14:05:15.242Z,27.20
2023-06-15T14:07:18.892Z,27.20
2023-06-15T14:09:21.809Z,27.21
2023-06-15T14:11:26.755Z,27.23
2023-06-15T14:13:29.914Z,27.24
2023-06-15T14:15:33.129Z,27.27
2023-06-15T14:17:36.014Z,27.30
2023-06-15T14:19:39.368Z,27.33
2023-06-15T14:21:42.356Z,27.34
2023-06-15T14:23:45.675Z,27.33
2023-06-15T14:25:49.933Z,27.35
2023-06-15T14:27:54.468Z,27.37
2023-06-15T14:29:57.535Z,27.34
2023-06-15T14:32:00.504Z,27.33
2023-06-15T14:34:03.422Z,27.31
2023-06-15T14:36:07.057Z,27.30
2023-06-15T14:38:09.963Z,27.30
2023-06-15T14:40:13.016Z,27.30
2023-06-15T14:42:16.367Z,27.28
2023-06-15T14:44:20.770Z,27.27
2023-06-15T14:46:23.713Z,27.25
2023-06-15T14:48:26.653Z,27.24
2023-06-15T14:50:31.968Z,27.24
2023-06-15T14:52:35.301Z,27.22
2023-06-15T14:54:39.032Z,27.22
2023-06-15T14:56:42.641Z,27.24
2023-06-15T14:58:45.537Z,27.25
2023-06-15T15:00:49.686Z,27.24
2023-06-15T15:02:53.130Z,27.25
2023-06-15T15:04:56.072Z,27.24
2023-06-15T15:06:59.103Z,27.26
2023-06-15T15:09:02.799Z,27.27
2023-06-15T15:11:05.654Z,27.29
2023-06-15T15:13:08.997Z,27.28
2023-06-15T15:15:12.072Z,27.28
2023-06-15T15:17:16.392Z,27.26
2023-06-15T15:19:21.224Z,27.27
2023-06-15T15:21:27.354Z,27.28
2023-06-15T15:23:30.446Z,27.31
2023-06-15T15:25:33.322Z,27.32
2023-06-15T15:27:36.311Z,27.33
2023-06-15T15:29:39.242Z,27.33
2023-06-15T15:31:42.433Z,27.35
2023-06-15T15:33:49.439Z,27.34
2023-06-15T15:35:52.412Z,27.33
2023-06-15T15:37:55.219Z,27.33
2023-06-15T15:39:58.281Z,27.35
2023-06-15T15:42:01.274Z,27.34
2023-06-15T15:44:04.178Z,27.37
2023-06-15T15:46:07.261Z,27.38
2023-06-15T15:48:10.448Z,27.41
2023-06-15T15:50:14.906Z,27.44
2023-06-15T15:52:18.088Z,27.46
2023-06-15T15:54:21.050Z,27.45
2023-06-15T15:56:25.170Z,27.47
2023-06-15T15:58:28.015Z,27.45
2023-06-15T16:00:31.521Z,27.46
2023-06-15T16:02:37.794Z,27.46
2023-06-15T16:04:41.064Z,27.45
2023-06-15T16:06:45.392Z,27.42
2023-06-15T16:08:48.386Z,27.41
2023-06-15T16:10:51.976Z,27.42
2023-06-15T16:12:54.924Z,27.39
2023-06-15T16:14:57.888Z,27.38
2023-06-15T16:17:04.743Z,27.38
2023-06-15T16:19:08.648Z,27.36
2023-06-15T16:21:11.963Z,27.36
2023-06-15T16:23:16.433Z,27.37
2023-06-15T16:25:19.913Z,27.36
2023-06-15T16:27:32.513Z,27.34
2023-06-15T16:29:36.483Z,27.29
2023-06-15T16:31:41.435Z,27.32
2023-06-15T16:33:44.944Z,27.28
2023-06-15T16:35:54.017Z,27.23
2023-06-15T16:37:57.230Z,27.24
2023-06-15T16:40:04.955Z,27.22
2023-06-15T16:42:08.972Z,27.21
2023-06-15T16:44:11.979Z,27.21
2023-06-15T16:46:15.507Z,27.22
2023-06-15T16:48:18.403Z,27.21
2023-06-15T16:50:21.311Z,27.22
2023-06-15T16:52:24.097Z,27.21
2023-06-15T16:54:27.723Z,27.21
2023-06-15T16:56:32.103Z,27.22
2023-06-15T16:58:35.073Z,27.19
2023-06-15T17:00:38.144Z,27.19
2023-06-15T17:02:41.604Z,27.18
2023-06-15T17:04:45.593Z,27.19
2023-06-15T17:06:50.484Z,27.20
2023-06-15T17:08:54.554Z,27.19
2023-06-15T17:10:58.446Z,27.18
2023-06-15T17:13:03.737Z,27.20
2023-06-15T17:15:08.996Z,27.19
2023-06-15T17:17:12.017Z,27.19
2023-06-15T17:19:15.349Z,27.20
2023-06-15T17:21:18.409Z,27.21
2023-06-15T17:23:21.464Z,27.23
2023-06-15T17:25:24.263Z,27.24
2023-06-15T17:27:27.216Z,27.24
2023-06-15T17:29:32.015Z,27.25
2023-06-15T17:31:36.324Z,27.27
2023-06-15T17:33:40.045Z,27.31
2023-06-15T17:35:43.365Z,27.32
2023-06-15T17:37:46.687Z,27.33
2023-06-15T17:39:49.899Z,27.34
2023-06-15T17:41:53.244Z,27.36
2023-06-15T17:43:57.162Z,27.38
2023-06-15T17:46:01.721Z,27.38
2023-06-15T17:48:05.409Z,27.39
2023-06-15T17:50:10.294Z,27.40
2023-06-15T17:52:13.860Z,27.40
2023-06-15T17:54:16.964Z,27.40
2023-06-15T17:56:20.112Z,27.39
2023-06-15T17:58:23.968Z,27.39
2023-06-15T18:00:27.146Z,27.40
2023-06-15T18:02:33.032Z,27.36
2023-06-15T18:04:37.160Z,27.32
2023-06-15T18:06:40.323Z,27.33
2023-06-15T18:08:43.240Z,27.32
2023-06-15T18:10:46.265Z,27.31
2023-06-15T18:12:49.599Z,27.30
2023-06-15T18:14:52.389Z,27.30
2023-06-15T18:16:55.305Z,27.31
2023-06-15T18:19:00.771Z,27.29
2023-06-15T18:21:03.896Z,27.31
2023-06-15T18:23:08.161Z,27.31
2023-06-15T18:25:11.819Z,27.33
2023-06-15T18:27:15.215Z,27.32
2023-06-15T18:29:21.716Z,27.30
2023-06-15T18:31:25.428Z,27.30
2023-06-15T18:33:29.738Z,27.27
2023-06-15T18:35:34.262Z,27.26
2023-06-15T18:37:38.724Z,27.24
2023-06-15T18:39:41.649Z,27.23
2023-06-15T18:41:45.745Z,27.19
2023-06-15T18:43:48.517Z,27.16
2023-06-15T18:45:51.961Z,27.15
2023-06-15T18:47:56.399Z,27.13
2023-06-15T18:49:59.440Z,27.09
2023-06-15T18:52:04.188Z,27.08
2023-06-15T18:54:07.262Z,27.09
2023-06-15T18:56:10.634Z,27.05
2023-06-15T18:58:14.422Z,27.04
2023-06-15T19:00:21.142Z,27.05
2023-06-15T19:02:24.930Z,27.03
2023-06-15T19:04:28.871Z,27.04
2023-06-15T19:06:32.090Z,27.00
2023-06-15T19:08:36.369Z,26.98
2023-06-15T19:10:39.636Z,26.97
2023-06-15T19:12:43.403Z,26.93
2023-06-15T19:14:47.491Z,26.91
2023-06-15T19:16:51.375Z,26.89
2023-06-15T19:18:54.356Z,26.89
2023-06-15T19:20:58.784Z,26.88
2023-06-15T19:23:02.073Z,26.89
2023-06-15T19:25:07.057Z,26.87
2023-06-15T19:27:09.973Z,26.88
2023-06-15T19:29:12.960Z,26.83
2023-06-15T19:31:16.141Z,26.84
2023-06-15T19:33:19.519Z,26.78
2023-06-15T19:35:22.648Z,26.74
2023-06-15T19:37:26.046Z,26.70
2023-06-15T19:39:30.810Z,26.65
2023-06-15T19:41:35.984Z,26.64
2023-06-15T19:43:40.388Z,26.63
2023-06-15T19:45:43.842Z,26.61
2023-06-15T19:47:46.973Z,26.57
2023-06-15T19:49:49.935Z,26.57
2023-06-15T19:51:53.055Z,26.55
2023-06-15T19:53:56.383Z,26.54
2023-06-15T19:56:04.282Z,26.54
2023-06-15T19:58:08.846Z,26.56
2023-06-15T20:00:13.163Z,26.56
2023-06-15T20:02:16.632Z,26.59
2023-06-15T20:04:20.660Z,26.56
2023-06-15T20:06:23.842Z,26.56
2023-06-15T20:08:29.142Z,26.54
2023-06-15T20:10:33.076Z,26.55
2023-06-15T20:12:37.082Z,26.52
2023-06-15T20:14:41.800Z,26.51
2023-06-15T20:16:45.434Z,26.52
2023-06-15T20:18:50.609Z,26.51
2023-06-15T20:20:54.106Z,26.50
2023-06-15T20:22:57.798Z,26.46
2023-06-15T20:25:02.744Z,26.42
2023-06-15T20:27:06.339Z,26.42
2023-06-15T20:29:10.443Z,26.40
2023-06-15T20:31:15.479Z,26.38
2023-06-15T20:33:19.464Z,26.33
2023-06-15T20:35:23.228Z,26.35
2023-06-15T20:37:28.836Z,26.36
2023-06-15T20:39:32.556Z,26.34
2023-06-15T20:41:36.884Z,26.34
2023-06-15T20:43:40.232Z,26.35
2023-06-15T20:45:43.188Z,26.33
2023-06-15T20:47:47.362Z,26.32
2023-06-15T20:49:50.643Z,26.33
2023-06-15T20:51:54.320Z,26.28
2023-06-15T20:53:57.942Z,26.26
2023-06-15T20:56:06.616Z,26.23
2023-06-15T20:58:11.984Z,26.22
2023-06-15T21:00:16.310Z,26.24
